createdAt,value
2018-05-06T00:02:02.919Z,60.10
2018-05-06T00:04:30.408Z,60.60
2018-05-06T00:06:57.918Z,60.80
2018-05-06T00:09:25.407Z,61.00
2018-05-06T00:11:52.918Z,61.00
2018-05-06T00:14:20.408Z,61.10
2018-05-06T00:16:47.918Z,61.30
2018-05-06T00:19:15.410Z,61.80
2018-05-06T00:21:42.921Z,62.10
2018-05-06T00:24:10.412Z,62.20
2018-05-06T00:26:37.918Z,62.70
2018-05-06T00:29:05.407Z,63.10
2018-05-06T00:31:32.911Z,63.20
2018-05-06T00:34:00.794Z,63.80
2018-05-06T00:36:28.691Z,63.60
2018-05-06T00:38:56.243Z,63.50
2018-05-06T00:41:24.151Z,63.80
2018-05-06T00:43:51.652Z,63.80
2018-05-06T00:46:19.231Z,63.90
2018-05-06T00:48:46.691Z,63.80
2018-05-06T00:51:14.184Z,63.60
2018-05-06T00:53:41.691Z,63.50
2018-05-06T00:56:09.585Z,63.30
2018-05-06T00:58:37.091Z,63.20
2018-05-06T01:01:04.816Z,63.10
2018-05-06T01:03:32.719Z,63.10
2018-05-06T01:06:00.211Z,63.10
2018-05-06T01:08:27.716Z,63.50
2018-05-06T01:10:55.204Z,63.30
2018-05-06T01:13:22.723Z,63.50
2018-05-06T01:15:50.215Z,63.30
2018-05-06T01:18:17.718Z,63.60
2018-05-06T01:20:45.603Z,63.40
2018-05-06T01:23:13.123Z,63.40
2018-05-06T01:25:40.615Z,63.70
2018-05-06T01:28:08.132Z,63.40
2018-05-06T01:30:35.623Z,63.50
2018-05-06T01:33:03.128Z,63.70
2018-05-06T01:35:30.637Z,63.80
2018-05-06T01:37:58.153Z,63.80
2018-05-06T01:40:25.651Z,63.90
2018-05-06T01:42:53.159Z,64.00
2018-05-06T01:45:20.664Z,64.10
2018-05-06T01:47:48.169Z,64.20
2018-05-06T01:50:15.658Z,64.40
2018-05-06T01:52:43.168Z,64.30
2018-05-06T01:55:10.666Z,64.00
2018-05-06T01:57:38.171Z,64.10
2018-05-06T02:00:05.663Z,64.60
2018-05-06T02:02:33.171Z,64.40
2018-05-06T02:05:00.658Z,64.00
2018-05-06T02:07:28.193Z,63.90
2018-05-06T02:09:55.678Z,63.40
2018-05-06T02:12:23.219Z,63.30
2018-05-06T02:14:50.706Z,63.70
2018-05-06T02:17:18.198Z,63.80
2018-05-06T02:19:45.703Z,63.70
2018-05-06T02:22:13.583Z,63.60
2018-05-06T02:24:41.106Z,63.60
2018-05-06T02:27:08.599Z,63.50
2018-05-06T02:29:36.117Z,63.70
2018-05-06T02:32:03.599Z,63.70
2018-05-06T02:34:31.103Z,63.50
2018-05-06T02:36:58.600Z,63.40
2018-05-06T02:39:26.501Z,62.30
2018-05-06T02:41:54.003Z,62.30
2018-05-06T02:44:21.523Z,62.30
2018-05-06T02:46:49.411Z,62.50
2018-05-06T02:49:16.926Z,62.50
2018-05-06T02:51:44.418Z,62.80
2018-05-06T02:54:11.927Z,62.80
2018-05-06T02:56:39.823Z,63.80
2018-05-06T02:59:07.381Z,63.70
2018-05-06T03:01:34.872Z,63.80
2018-05-06T03:04:02.392Z,63.60
2018-05-06T03:06:29.883Z,63.60
2018-05-06T03:08:57.783Z,63.70
2018-05-06T03:11:25.280Z,63.70
2018-05-06T03:13:52.786Z,63.40
2018-05-06T03:16:20.275Z,63.10
2018-05-06T03:18:48.174Z,62.70
2018-05-06T03:21:15.663Z,62.70
2018-05-06T03:23:43.175Z,62.40
2018-05-06T03:26:10.667Z,62.70
2018-05-06T03:28:38.579Z,62.80
2018-05-06T03:31:06.120Z,62.80
2018-05-06T03:33:34.023Z,63.40
2018-05-06T03:36:01.511Z,63.40
2018-05-06T03:38:29.035Z,63.00
2018-05-06T03:40:56.919Z,62.40
2018-05-06T03:43:24.408Z,62.40
2018-05-06T03:45:51.918Z,62.60
2018-05-06T03:48:19.415Z,61.70
2018-05-06T03:50:46.929Z,61.60
2018-05-06T03:53:14.450Z,61.80
2018-05-06T03:55:41.956Z,61.20
2018-05-06T03:58:21.243Z,60.90
2018-05-06T04:00:48.754Z,60.50
2018-05-06T04:03:16.246Z,60.90
2018-05-06T04:05:43.835Z,60.80
2018-05-06T04:08:12.191Z,60.70
2018-05-06T04:10:40.099Z,60.60
2018-05-06T04:13:07.594Z,60.60
2018-05-06T04:15:35.105Z,60.50
2018-05-06T04:18:02.596Z,60.60
2018-05-06T04:20:30.501Z,61.00
2018-05-06T04:22:57.986Z,61.00
2018-05-06T04:25:25.494Z,60.90
2018-05-06T04:27:52.990Z,61.00
2018-05-06T04:30:20.503Z,60.60
2018-05-06T04:32:48.003Z,60.40
2018-05-06T04:35:15.511Z,60.30
2018-05-06T04:37:42.994Z,60.20
2018-05-06T04:40:10.506Z,60.20
2018-05-06T04:42:38.386Z,60.20
2018-05-06T04:45:05.890Z,59.90
2018-05-06T04:47:33.774Z,59.40
2018-05-06T04:50:01.679Z,59.70
2018-05-06T04:52:29.171Z,59.70
2018-05-06T04:54:56.688Z,59.40
2018-05-06T04:57:24.571Z,59.90
2018-05-06T04:59:52.475Z,59.30
2018-05-06T05:02:19.971Z,59.30
2018-05-06T05:04:47.481Z,59.40
2018-05-06T05:07:15.371Z,59.40
2018-05-06T05:09:43.259Z,59.00
2018-05-06T05:12:11.167Z,58.90
2018-05-06T05:14:38.651Z,58.90
2018-05-06T05:17:06.159Z,59.10
2018-05-06T05:19:33.647Z,58.90
2018-05-06T05:22:01.549Z,58.20
2018-05-06T05:24:29.039Z,58.20
2018-05-06T05:26:56.539Z,58.10
2018-05-06T05:29:24.031Z,57.80
2018-05-06T05:31:51.935Z,57.80
2018-05-06T05:34:19.423Z,57.70
2018-05-06T05:36:46.940Z,57.80
2018-05-06T05:39:14.435Z,58.60
2018-05-06T05:41:42.340Z,57.70
2018-05-06T05:44:09.835Z,57.70
2018-05-06T05:46:37.343Z,57.20
2018-05-06T05:49:05.229Z,56.80
2018-05-06T05:51:33.131Z,56.90
2018-05-06T05:54:00.622Z,56.90
2018-05-06T05:56:28.131Z,56.50
2018-05-06T05:58:55.632Z,56.30
2018-05-06T06:01:23.163Z,55.50
2018-05-06T06:03:50.660Z,55.20
2018-05-06T06:06:18.575Z,54.50
2018-05-06T06:08:46.076Z,54.50
2018-05-06T06:11:13.587Z,52.90
2018-05-06T06:13:41.471Z,53.50
2018-05-06T06:16:09.375Z,52.70
2018-05-06T06:18:36.860Z,52.70
2018-05-06T06:21:04.363Z,52.00
2018-05-06T06:23:31.851Z,52.50
2018-05-06T06:25:59.757Z,51.60
2018-05-06T06:28:27.243Z,51.60
2018-05-06T06:30:54.744Z,51.60
2018-05-06T06:33:22.247Z,51.20
2018-05-06T06:35:50.135Z,51.10
2018-05-06T06:38:18.052Z,50.70
2018-05-06T06:40:45.556Z,50.70
2018-05-06T06:43:13.054Z,51.80
2018-05-06T06:45:40.951Z,51.30
2018-05-06T06:48:08.494Z,51.30
2018-05-06T06:50:35.961Z,50.40
2018-05-06T06:53:03.470Z,49.40
2018-05-06T06:55:30.958Z,50.40
2018-05-06T06:57:58.474Z,48.60
2018-05-06T07:00:25.958Z,48.30
2018-05-06T07:02:53.935Z,47.80
2018-05-06T07:05:21.818Z,48.90
2018-05-06T07:07:49.720Z,47.90
2018-05-06T07:10:17.407Z,47.90
2018-05-06T07:12:44.911Z,48.10
2018-05-06T07:15:12.399Z,47.90
2018-05-06T07:17:40.304Z,47.10
2018-05-06T07:20:08.188Z,46.90
2018-05-06T07:22:35.690Z,46.90
2018-05-06T07:25:03.175Z,47.10
2018-05-06T07:27:30.674Z,46.70
2018-05-06T07:29:58.162Z,47.50
2018-05-06T07:32:26.069Z,46.80
2018-05-06T07:34:53.555Z,46.80
2018-05-06T07:37:21.055Z,46.40
2018-05-06T07:39:48.951Z,46.40
2018-05-06T07:42:16.857Z,46.30
2018-05-06T07:44:44.343Z,46.30
2018-05-06T07:47:11.858Z,46.20
2018-05-06T07:49:39.444Z,46.50
2018-05-06T07:52:07.339Z,46.10
2018-05-06T07:54:35.370Z,45.40
2018-05-06T07:57:02.900Z,45.40
2018-05-06T07:59:30.391Z,44.90
2018-05-06T08:01:57.896Z,45.70
2018-05-06T08:04:25.379Z,46.40
2018-05-06T08:06:52.867Z,45.70
2018-05-06T08:09:20.777Z,45.50
2018-05-06T08:11:48.267Z,45.50
2018-05-06T08:14:15.771Z,45.20
2018-05-06T08:16:43.255Z,44.60
2018-05-06T08:19:11.261Z,44.40
2018-05-06T08:21:38.790Z,44.40
2018-05-06T08:24:06.278Z,45.00
2018-05-06T08:26:34.164Z,44.60
2018-05-06T08:29:02.069Z,45.30
2018-05-06T08:31:29.550Z,45.20
2018-05-06T08:33:57.052Z,44.30
2018-05-06T08:36:24.547Z,43.90
2018-05-06T08:38:52.123Z,44.60
2018-05-06T08:41:20.014Z,43.50
2018-05-06T08:43:47.912Z,43.40
2018-05-06T08:46:15.395Z,43.40
2018-05-06T08:48:42.903Z,43.90
2018-05-06T08:51:10.395Z,43.30
2018-05-06T08:53:38.297Z,42.80
2018-05-06T08:56:05.795Z,42.70
2018-05-06T08:58:33.304Z,43.20
2018-05-06T09:01:00.788Z,42.40
2018-05-06T09:03:28.693Z,41.90
2018-05-06T09:05:56.185Z,41.90
2018-05-06T09:08:23.691Z,41.10
2018-05-06T09:10:51.179Z,41.40
2018-05-06T09:13:20.096Z,41.30
2018-05-06T09:15:47.975Z,41.30
2018-05-06T09:18:15.872Z,39.80
2018-05-06T09:20:43.372Z,39.80
2018-05-06T09:23:10.890Z,38.80
2018-05-06T09:25:38.847Z,39.20
2018-05-06T09:28:06.286Z,39.20
2018-05-06T09:30:33.786Z,39.20
2018-05-06T09:33:01.299Z,38.80
2018-05-06T09:35:28.790Z,39.20
2018-05-06T09:37:56.286Z,38.60
2018-05-06T09:40:23.811Z,38.40
2018-05-06T09:42:51.294Z,37.80
2018-05-06T09:45:18.804Z,38.10
2018-05-06T09:47:46.389Z,37.10
2018-05-06T09:50:13.812Z,36.80
2018-05-06T09:52:41.297Z,36.80
2018-05-06T09:55:08.802Z,37.40
2018-05-06T09:57:36.287Z,37.00
2018-05-06T10:00:04.199Z,36.60
2018-05-06T10:02:31.686Z,36.60
2018-05-06T10:04:59.203Z,36.80
2018-05-06T10:07:26.695Z,36.60
2018-05-06T10:09:54.199Z,36.90
2018-05-06T10:12:21.700Z,37.10
2018-05-06T10:14:49.293Z,37.20
2018-05-06T10:17:16.778Z,37.90
2018-05-06T10:19:44.283Z,37.70
2018-05-06T10:22:11.815Z,38.70
2018-05-06T10:24:39.290Z,37.60
2018-05-06T10:29:41.095Z,37.50
2018-05-06T10:32:08.596Z,37.70
2018-05-06T10:34:36.114Z,37.50
2018-05-06T10:37:04.000Z,39.10
2018-05-06T10:39:31.901Z,37.00
2018-05-06T10:41:59.452Z,37.00
2018-05-06T10:44:27.419Z,38.40
2018-05-06T10:46:54.859Z,38.40
2018-05-06T10:49:22.406Z,38.60
2018-05-06T10:51:50.267Z,37.50
2018-05-06T10:54:18.163Z,38.00
2018-05-06T10:56:45.646Z,38.00
2018-05-06T10:59:13.151Z,37.70
2018-05-06T11:01:40.638Z,38.20
2018-05-06T11:04:08.196Z,38.60
2018-05-06T11:06:35.646Z,36.90
2018-05-06T11:09:03.134Z,37.60
2018-05-06T11:11:30.632Z,38.80
2018-05-06T11:13:58.521Z,37.30
2018-05-06T11:16:26.495Z,37.20
2018-05-06T11:18:54.374Z,36.40
2018-05-06T11:21:22.272Z,36.50
2018-05-06T11:23:49.758Z,36.50
2018-05-06T11:26:17.324Z,37.80
2018-05-06T11:28:44.768Z,38.20
2018-05-06T11:31:12.664Z,36.50
2018-05-06T11:33:40.225Z,36.50
2018-05-06T11:36:07.696Z,38.10
2018-05-06T11:38:35.185Z,37.20
2018-05-06T11:41:02.718Z,36.50
2018-05-06T11:43:30.194Z,37.60
2018-05-06T11:45:57.695Z,37.60
2018-05-06T11:48:25.191Z,37.80
2018-05-06T11:50:52.699Z,36.90
2018-05-06T11:53:20.295Z,37.70
2018-05-06T11:55:48.200Z,36.40
2018-05-06T11:58:15.686Z,36.30
2018-05-06T12:00:43.211Z,35.70
2018-05-06T12:03:11.092Z,36.70
2018-05-06T12:05:39.002Z,36.10
2018-05-06T12:08:06.496Z,36.10
2018-05-06T12:10:33.990Z,37.20
2018-05-06T12:13:01.491Z,35.80
2018-05-06T12:15:29.377Z,35.50
2018-05-06T12:17:56.881Z,35.50
2018-05-06T12:20:24.380Z,35.80
2018-05-06T12:22:51.883Z,36.10
2018-05-06T12:25:19.854Z,35.10
2018-05-06T12:27:47.806Z,37.90
2018-05-06T12:30:15.295Z,37.90
2018-05-06T12:32:42.800Z,37.50
2018-05-06T12:35:10.286Z,34.70
2018-05-06T12:37:37.848Z,35.20
2018-05-06T12:40:05.334Z,36.10
2018-05-06T12:42:32.895Z,36.00
2018-05-06T12:45:00.391Z,35.70
2018-05-06T12:47:27.924Z,36.00
2018-05-06T12:49:55.418Z,35.70
2018-05-06T12:52:22.922Z,35.80
2018-05-06T12:54:50.415Z,36.60
2018-05-06T12:57:18.352Z,36.30
2018-05-06T12:59:45.841Z,36.30
2018-05-06T13:02:13.413Z,36.50
2018-05-06T13:04:40.859Z,36.30
2018-05-06T13:07:08.359Z,36.60
2018-05-06T13:09:35.850Z,36.10
2018-05-06T13:12:03.734Z,35.50
2018-05-06T13:14:31.636Z,37.40
2018-05-06T13:16:59.123Z,37.40
2018-05-06T13:19:26.679Z,36.50
2018-05-06T13:21:54.166Z,35.90
2018-05-06T13:24:21.722Z,35.50
2018-05-06T13:26:49.220Z,36.20
2018-05-06T13:29:16.730Z,36.20
2018-05-06T13:31:44.219Z,36.60
2018-05-06T13:34:12.111Z,37.20
2018-05-06T13:36:39.594Z,37.20
2018-05-06T13:39:07.095Z,37.40
2018-05-06T13:41:34.583Z,36.30
2018-05-06T13:44:02.226Z,36.50
2018-05-06T13:46:29.675Z,35.80
2018-05-06T13:48:57.179Z,36.90
2018-05-06T13:51:24.709Z,37.00
2018-05-06T13:53:52.215Z,36.60
2018-05-06T13:56:19.707Z,36.60
2018-05-06T13:58:47.295Z,36.60
2018-05-06T14:01:14.782Z,36.00
2018-05-06T14:03:42.711Z,36.70
2018-05-06T14:06:10.201Z,36.70
2018-05-06T14:08:37.707Z,34.70
2018-05-06T14:11:05.592Z,36.30
2018-05-06T14:13:33.091Z,36.30
2018-05-06T14:16:00.588Z,36.10
2018-05-06T14:18:28.095Z,35.80
2018-05-06T14:20:55.983Z,35.90
2018-05-06T14:23:23.886Z,35.30
2018-05-06T14:25:51.371Z,35.30
2018-05-06T14:28:18.880Z,35.30
2018-05-06T14:30:46.372Z,36.50
2018-05-06T14:33:14.271Z,35.60
2018-05-06T14:35:41.760Z,35.60
2018-05-06T14:38:09.246Z,35.70
2018-05-06T14:40:36.853Z,34.90
2018-05-06T14:43:04.735Z,35.00
2018-05-06T14:45:32.631Z,35.30
2018-05-06T14:48:11.971Z,35.30
2018-05-06T14:50:39.530Z,34.40
2018-05-06T14:53:07.019Z,35.40
2018-05-06T14:55:34.914Z,35.20
2018-05-06T14:58:02.400Z,35.20
2018-05-06T15:00:29.904Z,35.70
2018-05-06T15:02:57.397Z,35.60
2018-05-06T15:05:25.294Z,36.70
2018-05-06T15:07:53.259Z,35.80
2018-05-06T15:10:21.178Z,36.10
2018-05-06T15:12:48.669Z,36.10
2018-05-06T15:15:16.168Z,36.90
2018-05-06T15:17:43.755Z,36.70
2018-05-06T15:20:11.655Z,35.40
2018-05-06T15:22:39.146Z,35.40
2018-05-06T15:25:06.655Z,36.30
2018-05-06T15:27:34.155Z,37.80
2018-05-06T15:30:02.080Z,37.40
2018-05-06T15:32:29.567Z,37.40
2018-05-06T15:34:57.167Z,36.00
2018-05-06T15:37:25.055Z,36.70
2018-05-06T15:39:53.041Z,37.30
2018-05-06T15:42:20.937Z,36.80
2018-05-06T15:44:48.446Z,36.80
2018-05-06T15:47:15.943Z,37.50
2018-05-06T15:49:43.451Z,37.00
2018-05-06T15:52:10.942Z,37.30
2018-05-06T15:54:38.450Z,38.50
2018-05-06T15:57:05.943Z,37.50
2018-05-06T15:59:33.851Z,38.50
2018-05-06T16:05:19.164Z,37.10
2018-05-06T16:07:46.658Z,37.10
2018-05-06T16:10:14.159Z,36.80
2018-05-06T16:12:41.657Z,37.00
2018-05-06T16:15:09.558Z,37.80
2018-05-06T16:17:37.126Z,37.80
2018-05-06T16:20:04.572Z,38.10
2018-05-06T16:22:32.288Z,37.40
2018-05-06T16:25:00.431Z,37.20
2018-05-06T16:27:27.939Z,37.70
2018-05-06T16:29:55.435Z,37.70
2018-05-06T16:32:22.947Z,37.50
2018-05-06T16:34:50.442Z,37.40
2018-05-06T16:37:17.951Z,37.90
2018-05-06T16:39:45.460Z,38.30
2018-05-06T16:42:13.363Z,39.10
2018-05-06T16:44:40.859Z,39.10
2018-05-06T16:47:08.661Z,38.80
2018-05-06T16:49:36.270Z,39.50
2018-05-06T16:52:04.171Z,39.50
2018-05-06T16:54:31.659Z,39.50
2018-05-06T16:56:59.167Z,39.90
2018-05-06T16:59:26.654Z,39.40
2018-05-06T17:01:54.159Z,40.00
2018-05-06T17:04:21.643Z,39.80
2018-05-06T17:06:49.176Z,40.20
2018-05-06T17:09:17.076Z,40.20
2018-05-06T17:11:44.650Z,40.20
2018-05-06T17:14:12.164Z,40.30
2018-05-06T17:16:39.676Z,40.20
2018-05-06T17:19:07.567Z,40.70
2018-05-06T17:21:35.070Z,40.70
2018-05-06T17:24:02.555Z,40.60
2018-05-06T17:26:30.087Z,41.00
2018-05-06T17:28:57.579Z,40.90
2018-05-06T17:31:25.080Z,41.20
2018-05-06T17:33:52.567Z,41.20
2018-05-06T17:36:20.463Z,40.80
2018-05-06T17:38:47.955Z,40.80
2018-05-06T17:41:15.458Z,40.70
2018-05-06T17:43:42.940Z,40.50
2018-05-06T17:46:10.442Z,41.00
2018-05-06T17:48:37.998Z,41.00
2018-05-06T17:51:05.984Z,41.20
2018-05-06T17:53:34.810Z,41.10
2018-05-06T17:56:02.295Z,41.10
2018-05-06T17:58:29.795Z,40.90
2018-05-06T18:00:57.282Z,41.40
2018-05-06T18:03:24.782Z,41.70
2018-05-06T18:05:52.663Z,41.60
2018-05-06T18:08:20.563Z,42.00
2018-05-06T18:10:48.047Z,42.00
2018-05-06T18:13:15.552Z,42.40
2018-05-06T18:15:43.161Z,43.20
2018-05-06T18:18:10.668Z,42.90
2018-05-06T18:20:38.162Z,43.80
2018-05-06T18:23:05.759Z,43.80
2018-05-06T18:25:33.642Z,43.20
2018-05-06T18:28:01.539Z,43.40
2018-05-06T18:30:29.027Z,43.30
2018-05-06T18:32:56.537Z,43.60
2018-05-06T18:35:24.032Z,43.70
2018-05-06T18:37:51.560Z,44.80
2018-05-06T18:40:19.051Z,44.70
2018-05-06T18:42:46.557Z,44.60
2018-05-06T18:45:14.047Z,44.90
2018-05-06T18:47:41.951Z,46.00
2018-05-06T18:50:09.507Z,46.00
2018-05-06T18:52:37.476Z,47.20
2018-05-06T18:55:04.915Z,47.20
2018-05-06T18:57:32.421Z,47.70
2018-05-06T19:00:00.309Z,48.10
2018-05-06T19:02:28.211Z,48.80
2018-05-06T19:04:55.708Z,48.80
2018-05-06T19:07:23.212Z,48.00
2018-05-06T19:09:50.707Z,48.20
2018-05-06T19:12:18.237Z,47.90
2018-05-06T19:14:45.728Z,48.60
2018-05-06T19:17:13.219Z,48.70
2018-05-06T19:19:40.732Z,49.10
2018-05-06T19:22:08.231Z,49.20
2018-05-06T19:24:35.743Z,49.30
2018-05-06T19:27:03.235Z,49.30
2018-05-06T19:29:30.795Z,49.40
2018-05-06T19:31:58.644Z,49.80
2018-05-06T19:34:26.628Z,50.00
2018-05-06T19:36:54.517Z,50.50
2018-05-06T19:39:22.028Z,50.50
2018-05-06T19:41:49.520Z,50.90
2018-05-06T19:44:17.032Z,51.10
2018-05-06T19:46:44.532Z,50.90
2018-05-06T19:49:12.038Z,51.10
2018-05-06T19:51:39.536Z,51.00
2018-05-06T19:54:07.079Z,51.30
2018-05-06T19:56:34.575Z,51.40
2018-05-06T19:59:02.484Z,51.70
2018-05-06T20:01:30.009Z,51.70
2018-05-06T20:03:57.532Z,51.60
2018-05-06T20:06:25.025Z,52.00
2018-05-06T20:08:52.546Z,52.00
2018-05-06T20:11:20.441Z,52.60
2018-05-06T20:13:47.965Z,52.60
2018-05-06T20:16:15.806Z,52.60
2018-05-06T20:18:43.263Z,52.80
2018-05-06T20:21:10.751Z,52.90
2018-05-06T20:23:38.267Z,53.10
2018-05-06T20:26:05.751Z,53.30
2018-05-06T20:28:33.651Z,53.60
2018-05-06T20:31:01.211Z,53.60
2018-05-06T20:33:29.098Z,53.70
2018-05-06T20:35:56.661Z,53.70
2018-05-06T20:38:24.579Z,53.70
2018-05-06T20:40:52.070Z,53.70
2018-05-06T20:43:19.564Z,55.30
2018-05-06T20:45:47.095Z,54.70
2018-05-06T20:48:14.583Z,55.20
2018-05-06T20:50:42.097Z,54.80
2018-05-06T20:53:10.027Z,54.70
2018-05-06T20:55:37.527Z,54.70
2018-05-06T20:58:05.098Z,54.90
2018-05-06T21:00:32.606Z,55.20
2018-05-06T21:03:00.095Z,55.40
2018-05-06T21:05:27.595Z,55.00
2018-05-06T21:07:55.100Z,54.80
2018-05-06T21:10:23.012Z,55.20
2018-05-06T21:12:50.512Z,55.20
2018-05-06T21:15:17.999Z,55.70
2018-05-06T21:17:45.504Z,56.20
2018-05-06T21:20:13.384Z,56.80
2018-05-06T21:22:41.285Z,56.90
2018-05-06T21:25:08.783Z,56.90
2018-05-06T21:27:36.370Z,56.80
2018-05-06T21:30:04.200Z,57.20
2018-05-06T21:32:31.772Z,57.20
2018-05-06T21:34:59.267Z,57.40
2018-05-06T21:37:26.771Z,57.70
2018-05-06T21:39:54.260Z,57.80
2018-05-06T21:42:22.423Z,58.00
2018-05-06T21:44:49.927Z,58.00
2018-05-06T21:47:17.423Z,58.00
2018-05-06T21:49:44.923Z,58.40
2018-05-06T21:52:12.407Z,58.80
2018-05-06T21:54:39.909Z,58.70
2018-05-06T21:57:07.792Z,59.30
2018-05-06T21:59:35.759Z,59.90
2018-05-06T22:02:03.639Z,59.70
2018-05-06T22:04:31.540Z,59.70
2018-05-06T22:06:59.037Z,59.70
2018-05-06T22:09:26.540Z,59.80
2018-05-06T22:11:54.030Z,60.00
2018-05-06T22:14:21.933Z,60.70
2018-05-06T22:16:49.423Z,60.70
2018-05-06T22:19:16.931Z,60.60
2018-05-06T22:21:44.419Z,60.60
2018-05-06T22:24:12.321Z,60.90
2018-05-06T22:26:39.815Z,60.90
2018-05-06T22:29:07.340Z,61.00
2018-05-06T22:31:34.831Z,61.20
2018-05-06T22:34:02.343Z,61.20
2018-05-06T22:36:29.836Z,61.10
2018-05-06T22:38:57.345Z,61.30
2018-05-06T22:41:24.844Z,61.20
2018-05-06T22:43:52.352Z,61.50
2018-05-06T22:46:19.843Z,62.00
2018-05-06T22:48:47.356Z,62.60
2018-05-06T22:51:14.843Z,62.80
2018-05-06T22:53:42.348Z,62.40
2018-05-06T22:56:09.859Z,62.40
2018-05-06T22:58:37.367Z,62.70
2018-05-06T23:01:04.895Z,62.90
2018-05-06T23:03:32.396Z,62.90
2018-05-06T23:05:59.911Z,63.00
2018-05-06T23:08:27.819Z,63.50
2018-05-06T23:10:55.305Z,63.50
2018-05-06T23:13:22.799Z,63.50
2018-05-06T23:15:50.303Z,63.80
2018-05-06T23:18:18.184Z,64.00
2018-05-06T23:20:46.091Z,64.10
2018-05-06T23:23:13.580Z,64.10
2018-05-06T23:25:41.088Z,64.00
2018-05-06T23:28:08.595Z,64.00
2018-05-06T23:30:36.109Z,64.10
2018-05-06T23:33:03.603Z,63.80
2018-05-06T23:35:31.186Z,63.90
2018-05-06T23:37:58.629Z,63.90
2018-05-06T23:40:26.144Z,63.70
2018-05-06T23:42:54.055Z,64.00
2018-05-06T23:45:21.575Z,64.00
2018-05-06T23:47:49.064Z,64.10
2018-05-06T23:50:16.969Z,64.60
2018-05-06T23:52:44.481Z,64.60
2018-05-06T23:55:11.996Z,64.60
2018-05-06T23:57:39.492Z,64.70
